sensor_id;sensor_type;location;lat;lon;timestamp;P1;durP1;ratioP1;P2;durP2;ratioP2
44955;SDS011;30686;52.512;-1.188;2022-11-20T00:02:25;9.02;;;2.70;;
44955;SDS011;30686;52.512;-1.188;2022-11-20T00:04:52;5.78;;;2.60;;
44955;SDS011;30686;52.512;-1.188;2022-11-20T00:07:18;5.60;;;1.95;;
44955;SDS011;30686;52.512;-1.188;2022-11-20T00:09:44;13.88;;;2.70;;
44955;SDS011;30686;52.512;-1.188;2022-11-20T00:12:10;14.43;;;2.97;;
44955;SDS011;30686;52.512;-1.188;2022-11-20T00:14:37;6.93;;;2.10;;
44955;SDS011;30686;52.512;-1.188;2022-11-20T00:17:03;5.57;;;1.95;;
44955;SDS011;30686;52.512;-1.188;2022-11-20T00:19:30;5.13;;;2.55;;
44955;SDS011;30686;52.512;-1.188;2022-11-20T00:21:56;10.05;;;3.40;;
44955;SDS011;30686;52.512;-1.188;2022-11-20T00:24:22;15.77;;;3.08;;
44955;SDS011;30686;52.512;-1.188;2022-11-20T00:26:49;14.05;;;3.20;;
44955;SDS011;30686;52.512;-1.188;2022-11-20T00:29:15;7.38;;;2.97;;
44955;SDS011;30686;52.512;-1.188;2022-11-20T00:31:41;10.82;;;3.28;;
44955;SDS011;30686;52.512;-1.188;2022-11-20T00:34:10;9.32;;;3.17;;
44955;SDS011;30686;52.512;-1.188;2022-11-20T00:36:36;7.30;;;3.45;;
44955;SDS011;30686;52.512;-1.188;2022-11-20T00:39:03;11.82;;;3.17;;
44955;SDS011;30686;52.512;-1.188;2022-11-20T00:41:29;13.00;;;3.30;;
44955;SDS011;30686;52.512;-1.188;2022-11-20T00:43:57;27.67;;;6.00;;
44955;SDS011;30686;52.512;-1.188;2022-11-20T00:46:24;9.82;;;3.22;;
44955;SDS011;30686;52.512;-1.188;2022-11-20T00:48:51;7.70;;;3.10;;
44955;SDS011;30686;52.512;-1.188;2022-11-20T00:51:19;13.90;;;3.88;;
44955;SDS011;30686;52.512;-1.188;2022-11-20T00:53:46;13.10;;;2.70;;
44955;SDS011;30686;52.512;-1.188;2022-11-20T00:56:14;12.52;;;2.65;;
44955;SDS011;30686;52.512;-1.188;2022-11-20T00:58:42;10.05;;;2.70;;
44955;SDS011;30686;52.512;-1.188;2022-11-20T01:01:12;5.63;;;2.13;;
44955;SDS011;30686;52.512;-1.188;2022-11-20T01:03:42;13.20;;;2.38;;
44955;SDS011;30686;52.512;-1.188;2022-11-20T01:06:10;3.85;;;1.95;;
44955;SDS011;30686;52.512;-1.188;2022-11-20T01:08:37;7.90;;;2.08;;
44955;SDS011;30686;52.512;-1.188;2022-11-20T01:11:07;8.88;;;2.00;;
44955;SDS011;30686;52.512;-1.188;2022-11-20T01:13:35;10.63;;;2.30;;
44955;SDS011;30686;52.512;-1.188;2022-11-20T01:18:37;8.40;;;2.33;;
44955;SDS011;30686;52.512;-1.188;2022-11-20T01:21:13;8.23;;;2.53;;
44955;SDS011;30686;52.512;-1.188;2022-11-20T01:23:40;8.70;;;2.45;;
44955;SDS011;30686;52.512;-1.188;2022-11-20T01:26:08;10.15;;;1.70;;
44955;SDS011;30686;52.512;-1.188;2022-11-20T01:28:45;10.52;;;2.33;;
44955;SDS011;30686;52.512;-1.188;2022-11-20T01:31:28;9.43;;;2.20;;
44955;SDS011;30686;52.512;-1.188;2022-11-20T01:34:04;9.30;;;2.22;;
44955;SDS011;30686;52.512;-1.188;2022-11-20T01:36:34;6.88;;;2.40;;
44955;SDS011;30686;52.512;-1.188;2022-11-20T01:39:02;8.70;;;1.90;;
44955;SDS011;30686;52.512;-1.188;2022-11-20T01:41:30;6.18;;;2.15;;
44955;SDS011;30686;52.512;-1.188;2022-11-20T01:44:18;8.35;;;1.73;;
44955;SDS011;30686;52.512;-1.188;2022-11-20T01:46:52;7.15;;;2.25;;
44955;SDS011;30686;52.512;-1.188;2022-11-20T01:49:24;10.93;;;1.95;;
44955;SDS011;30686;52.512;-1.188;2022-11-20T01:52:28;4.53;;;2.20;;
44955;SDS011;30686;52.512;-1.188;2022-11-20T01:54:56;5.45;;;1.60;;
44955;SDS011;30686;52.512;-1.188;2022-11-20T01:57:25;11.63;;;2.33;;
44955;SDS011;30686;52.512;-1.188;2022-11-20T02:00:01;5.63;;;2.00;;
44955;SDS011;30686;52.512;-1.188;2022-11-20T02:02:29;4.30;;;2.63;;
44955;SDS011;30686;52.512;-1.188;2022-11-20T02:04:56;8.98;;;2.22;;
44955;SDS011;30686;52.512;-1.188;2022-11-20T02:07:27;5.88;;;2.15;;
44955;SDS011;30686;52.512;-1.188;2022-11-20T02:09:53;8.68;;;2.30;;
44955;SDS011;30686;52.512;-1.188;2022-11-20T02:12:20;6.07;;;2.20;;
44955;SDS011;30686;52.512;-1.188;2022-11-20T02:15:05;8.43;;;2.58;;
44955;SDS011;30686;52.512;-1.188;2022-11-20T02:17:31;10.85;;;2.60;;
44955;SDS011;30686;52.512;-1.188;2022-11-20T02:19:57;8.20;;;2.28;;
44955;SDS011;30686;52.512;-1.188;2022-11-20T02:22:31;8.48;;;2.78;;
44955;SDS011;30686;52.512;-1.188;2022-11-20T02:24:59;8.43;;;2.45;;
44955;SDS011;30686;52.512;-1.188;2022-11-20T02:27:27;8.07;;;1.90;;
44955;SDS011;30686;52.512;-1.188;2022-11-20T02:29:59;10.70;;;2.67;;
44955;SDS011;30686;52.512;-1.188;2022-11-20T02:32:35;8.80;;;2.33;;
44955;SDS011;30686;52.512;-1.188;2022-11-20T02:37:38;8.00;;;3.08;;
44955;SDS011;30686;52.512;-1.188;2022-11-20T02:40:07;6.63;;;2.78;;
44955;SDS011;30686;52.512;-1.188;2022-11-20T02:42:35;7.68;;;2.90;;
44955;SDS011;30686;52.512;-1.188;2022-11-20T02:45:03;6.75;;;2.03;;
44955;SDS011;30686;52.512;-1.188;2022-11-20T02:47:30;6.88;;;2.45;;
44955;SDS011;30686;52.512;-1.188;2022-11-20T02:49:57;5.28;;;2.25;;
44955;SDS011;30686;52.512;-1.188;2022-11-20T02:52:23;7.72;;;2.40;;
44955;SDS011;30686;52.512;-1.188;2022-11-20T02:54:50;7.63;;;2.03;;
44955;SDS011;30686;52.512;-1.188;2022-11-20T02:57:16;12.38;;;2.22;;
44955;SDS011;30686;52.512;-1.188;2022-11-20T02:59:42;9.60;;;2.60;;
44955;SDS011;30686;52.512;-1.188;2022-11-20T03:04:37;4.47;;;2.00;;
44955;SDS011;30686;52.512;-1.188;2022-11-20T03:07:03;11.63;;;2.63;;
44955;SDS011;30686;52.512;-1.188;2022-11-20T03:09:30;9.13;;;2.25;;
44955;SDS011;30686;52.512;-1.188;2022-11-20T03:11:56;6.43;;;2.35;;
44955;SDS011;30686;52.512;-1.188;2022-11-20T03:14:23;10.43;;;2.42;;
44955;SDS011;30686;52.512;-1.188;2022-11-20T03:16:49;8.38;;;2.10;;
44955;SDS011;30686;52.512;-1.188;2022-11-20T03:19:16;8.25;;;2.10;;
44955;SDS011;30686;52.512;-1.188;2022-11-20T03:21:42;5.53;;;1.90;;
44955;SDS011;30686;52.512;-1.188;2022-11-20T03:24:08;5.43;;;2.08;;
44955;SDS011;30686;52.512;-1.188;2022-11-20T03:26:35;6.97;;;2.30;;
44955;SDS011;30686;52.512;-1.188;2022-11-20T03:29:02;6.20;;;3.22;;
44955;SDS011;30686;52.512;-1.188;2022-11-20T03:31:30;8.00;;;2.33;;
44955;SDS011;30686;52.512;-1.188;2022-11-20T03:33:57;6.93;;;2.50;;
44955;SDS011;30686;52.512;-1.188;2022-11-20T03:36:24;6.65;;;1.95;;
44955;SDS011;30686;52.512;-1.188;2022-11-20T03:38:50;6.93;;;2.15;;
44955;SDS011;30686;52.512;-1.188;2022-11-20T03:41:17;6.43;;;1.83;;
44955;SDS011;30686;52.512;-1.188;2022-11-20T03:43:51;6.57;;;2.05;;
44955;SDS011;30686;52.512;-1.188;2022-11-20T03:46:17;7.18;;;2.13;;
44955;SDS011;30686;52.512;-1.188;2022-11-20T03:48:43;7.05;;;2.15;;
44955;SDS011;30686;52.512;-1.188;2022-11-20T03:51:11;6.80;;;2.28;;
44955;SDS011;30686;52.512;-1.188;2022-11-20T03:53:38;6.47;;;2.30;;
44955;SDS011;30686;52.512;-1.188;2022-11-20T03:56:04;6.90;;;2.03;;
44955;SDS011;30686;52.512;-1.188;2022-11-20T03:58:30;5.28;;;1.88;;
44955;SDS011;30686;52.512;-1.188;2022-11-20T04:00:58;4.00;;;1.92;;
44955;SDS011;30686;52.512;-1.188;2022-11-20T04:03:29;6.22;;;2.00;;
44955;SDS011;30686;52.512;-1.188;2022-11-20T04:05:55;6.13;;;2.00;;
44955;SDS011;30686;52.512;-1.188;2022-11-20T04:08:36;3.03;;;1.42;;
44955;SDS011;30686;52.512;-1.188;2022-11-20T04:13:34;4.20;;;1.85;;
44955;SDS011;30686;52.512;-1.188;2022-11-20T04:16:00;6.88;;;1.88;;
44955;SDS011;30686;52.512;-1.188;2022-11-20T04:18:27;3.78;;;1.50;;
44955;SDS011;30686;52.512;-1.188;2022-11-20T04:20:55;9.32;;;1.65;;
44955;SDS011;30686;52.512;-1.188;2022-11-20T04:23:23;6.68;;;1.90;;
44955;SDS011;30686;52.512;-1.188;2022-11-20T04:25:50;3.83;;;1.73;;
44955;SDS011;30686;52.512;-1.188;2022-11-20T04:28:16;4.72;;;1.42;;
44955;SDS011;30686;52.512;-1.188;2022-11-20T04:30:45;2.58;;;1.52;;
44955;SDS011;30686;52.512;-1.188;2022-11-20T04:33:11;6.00;;;2.42;;
44955;SDS011;30686;52.512;-1.188;2022-11-20T04:35:37;4.70;;;1.77;;
44955;SDS011;30686;52.512;-1.188;2022-11-20T04:38:04;12.00;;;2.00;;
44955;SDS011;30686;52.512;-1.188;2022-11-20T04:40:30;2.78;;;1.65;;
44955;SDS011;30686;52.512;-1.188;2022-11-20T04:42:56;3.00;;;1.70;;
44955;SDS011;30686;52.512;-1.188;2022-11-20T04:45:24;6.82;;;2.10;;
44955;SDS011;30686;52.512;-1.188;2022-11-20T04:47:50;4.15;;;1.77;;
44955;SDS011;30686;52.512;-1.188;2022-11-20T04:50:16;6.00;;;2.28;;
44955;SDS011;30686;52.512;-1.188;2022-11-20T04:52:46;4.28;;;1.85;;
44955;SDS011;30686;52.512;-1.188;2022-11-20T04:55:24;2.47;;;1.60;;
44955;SDS011;30686;52.512;-1.188;2022-11-20T04:57:51;3.00;;;1.90;;
44955;SDS011;30686;52.512;-1.188;2022-11-20T05:00:18;2.45;;;1.63;;
44955;SDS011;30686;52.512;-1.188;2022-11-20T05:02:46;7.28;;;2.10;;
44955;SDS011;30686;52.512;-1.188;2022-11-20T05:05:16;4.70;;;1.92;;
44955;SDS011;30686;52.512;-1.188;2022-11-20T05:07:43;2.97;;;1.80;;
44955;SDS011;30686;52.512;-1.188;2022-11-20T05:10:09;4.60;;;1.90;;
44955;SDS011;30686;52.512;-1.188;2022-11-20T05:12:36;3.67;;;1.83;;
44955;SDS011;30686;52.512;-1.188;2022-11-20T05:15:03;3.53;;;1.80;;
44955;SDS011;30686;52.512;-1.188;2022-11-20T05:17:32;4.03;;;1.80;;
44955;SDS011;30686;52.512;-1.188;2022-11-20T05:19:59;3.65;;;1.73;;
44955;SDS011;30686;52.512;-1.188;2022-11-20T05:22:26;3.55;;;1.60;;
44955;SDS011;30686;52.512;-1.188;2022-11-20T05:24:55;4.32;;;1.80;;
44955;SDS011;30686;52.512;-1.188;2022-11-20T05:27:22;3.47;;;1.80;;
44955;SDS011;30686;52.512;-1.188;2022-11-20T05:29:49;8.80;;;2.22;;
44955;SDS011;30686;52.512;-1.188;2022-11-20T05:32:15;3.10;;;1.55;;
44955;SDS011;30686;52.512;-1.188;2022-11-20T05:34:41;3.17;;;1.73;;
44955;SDS011;30686;52.512;-1.188;2022-11-20T05:37:08;5.47;;;1.95;;
44955;SDS011;30686;52.512;-1.188;2022-11-20T05:39:34;4.40;;;2.00;;
44955;SDS011;30686;52.512;-1.188;2022-11-20T05:42:00;5.78;;;2.38;;
44955;SDS011;30686;52.512;-1.188;2022-11-20T05:47:11;3.90;;;2.00;;
44955;SDS011;30686;52.512;-1.188;2022-11-20T05:49:37;4.82;;;1.88;;
44955;SDS011;30686;52.512;-1.188;2022-11-20T05:52:03;4.05;;;2.00;;
44955;SDS011;30686;52.512;-1.188;2022-11-20T05:54:31;3.38;;;2.17;;
44955;SDS011;30686;52.512;-1.188;2022-11-20T05:56:57;3.80;;;2.28;;
44955;SDS011;30686;52.512;-1.188;2022-11-20T05:59:23;6.57;;;2.67;;
44955;SDS011;30686;52.512;-1.188;2022-11-20T06:01:50;5.07;;;2.60;;
44955;SDS011;30686;52.512;-1.188;2022-11-20T06:04:19;5.35;;;2.65;;
44955;SDS011;30686;52.512;-1.188;2022-11-20T06:06:50;4.45;;;2.25;;
44955;SDS011;30686;52.512;-1.188;2022-11-20T06:09:16;6.82;;;2.55;;
44955;SDS011;30686;52.512;-1.188;2022-11-20T06:11:43;4.00;;;1.90;;
44955;SDS011;30686;52.512;-1.188;2022-11-20T06:14:09;5.20;;;2.30;;
44955;SDS011;30686;52.512;-1.188;2022-11-20T06:16:35;4.88;;;2.38;;
44955;SDS011;30686;52.512;-1.188;2022-11-20T06:19:01;4.65;;;2.20;;
44955;SDS011;30686;52.512;-1.188;2022-11-20T06:21:29;4.45;;;1.80;;
44955;SDS011;30686;52.512;-1.188;2022-11-20T06:23:55;2.90;;;2.05;;
44955;SDS011;30686;52.512;-1.188;2022-11-20T06:26:23;3.00;;;1.60;;
44955;SDS011;30686;52.512;-1.188;2022-11-20T06:28:49;6.30;;;2.17;;
44955;SDS011;30686;52.512;-1.188;2022-11-20T06:31:18;3.97;;;1.88;;
44955;SDS011;30686;52.512;-1.188;2022-11-20T06:33:44;4.90;;;1.83;;
44955;SDS011;30686;52.512;-1.188;2022-11-20T06:36:13;3.67;;;1.75;;
44955;SDS011;30686;52.512;-1.188;2022-11-20T06:38:45;3.22;;;1.83;;
44955;SDS011;30686;52.512;-1.188;2022-11-20T06:41:13;6.05;;;2.13;;
44955;SDS011;30686;52.512;-1.188;2022-11-20T06:43:44;4.57;;;1.83;;
44955;SDS011;30686;52.512;-1.188;2022-11-20T06:46:27;3.55;;;2.00;;
44955;SDS011;30686;52.512;-1.188;2022-11-20T06:49:17;3.60;;;1.65;;
44955;SDS011;30686;52.512;-1.188;2022-11-20T06:51:55;2.78;;;1.73;;
44955;SDS011;30686;52.512;-1.188;2022-11-20T06:54:24;4.50;;;1.48;;
44955;SDS011;30686;52.512;-1.188;2022-11-20T06:56:58;4.70;;;2.08;;
44955;SDS011;30686;52.512;-1.188;2022-11-20T06:59:34;2.88;;;1.38;;
44955;SDS011;30686;52.512;-1.188;2022-11-20T07:02:10;5.15;;;1.50;;
44955;SDS011;30686;52.512;-1.188;2022-11-20T07:04:40;2.40;;;1.38;;
44955;SDS011;30686;52.512;-1.188;2022-11-20T07:07:08;3.83;;;1.40;;
44955;SDS011;30686;52.512;-1.188;2022-11-20T07:09:38;5.88;;;2.15;;
44955;SDS011;30686;52.512;-1.188;2022-11-20T07:12:05;5.15;;;1.70;;
44955;SDS011;30686;52.512;-1.188;2022-11-20T07:14:35;3.35;;;1.80;;
44955;SDS011;30686;52.512;-1.188;2022-11-20T07:17:02;5.63;;;1.50;;
44955;SDS011;30686;52.512;-1.188;2022-11-20T07:19:28;8.85;;;2.35;;
44955;SDS011;30686;52.512;-1.188;2022-11-20T07:22:02;3.05;;;1.58;;
44955;SDS011;30686;52.512;-1.188;2022-11-20T07:24:32;4.97;;;1.60;;
44955;SDS011;30686;52.512;-1.188;2022-11-20T07:27:00;4.68;;;1.60;;
44955;SDS011;30686;52.512;-1.188;2022-11-20T07:29:26;3.92;;;1.50;;
44955;SDS011;30686;52.512;-1.188;2022-11-20T07:31:54;4.30;;;1.70;;
44955;SDS011;30686;52.512;-1.188;2022-11-20T07:34:21;2.78;;;1.60;;
44955;SDS011;30686;52.512;-1.188;2022-11-20T07:36:47;3.78;;;1.42;;
44955;SDS011;30686;52.512;-1.188;2022-11-20T07:39:15;3.80;;;1.70;;
44955;SDS011;30686;52.512;-1.188;2022-11-20T07:41:42;3.33;;;1.67;;
44955;SDS011;30686;52.512;-1.188;2022-11-20T07:44:09;5.80;;;1.60;;
44955;SDS011;30686;52.512;-1.188;2022-11-20T07:46:36;6.60;;;2.03;;
44955;SDS011;30686;52.512;-1.188;2022-11-20T07:49:21;7.47;;;2.42;;
44955;SDS011;30686;52.512;-1.188;2022-11-20T07:52:28;7.40;;;1.90;;
44955;SDS011;30686;52.512;-1.188;2022-11-20T07:58:07;3.42;;;1.38;;
44955;SDS011;30686;52.512;-1.188;2022-11-20T08:00:33;3.30;;;1.83;;
44955;SDS011;30686;52.512;-1.188;2022-11-20T08:03:02;2.28;;;1.42;;
44955;SDS011;30686;52.512;-1.188;2022-11-20T08:05:28;4.85;;;1.73;;
44955;SDS011;30686;52.512;-1.188;2022-11-20T08:07:55;4.53;;;1.98;;
44955;SDS011;30686;52.512;-1.188;2022-11-20T08:10:21;6.28;;;1.65;;
44955;SDS011;30686;52.512;-1.188;2022-11-20T08:12:51;7.13;;;1.60;;
44955;SDS011;30686;52.512;-1.188;2022-11-20T08:15:38;4.40;;;1.70;;
44955;SDS011;30686;52.512;-1.188;2022-11-20T08:20:53;3.90;;;1.40;;
44955;SDS011;30686;52.512;-1.188;2022-11-20T08:23:23;6.28;;;2.05;;
44955;SDS011;30686;52.512;-1.188;2022-11-20T08:25:54;5.90;;;1.58;;
44955;SDS011;30686;52.512;-1.188;2022-11-20T08:28:29;5.65;;;2.38;;
44955;SDS011;30686;52.512;-1.188;2022-11-20T08:31:02;10.55;;;1.45;;
44955;SDS011;30686;52.512;-1.188;2022-11-20T08:33:35;4.90;;;1.70;;
44955;SDS011;30686;52.512;-1.188;2022-11-20T08:36:02;5.90;;;1.40;;
44955;SDS011;30686;52.512;-1.188;2022-11-20T08:38:29;3.60;;;1.70;;
44955;SDS011;30686;52.512;-1.188;2022-11-20T08:41:02;6.97;;;2.45;;
44955;SDS011;30686;52.512;-1.188;2022-11-20T08:43:59;10.40;;;1.77;;
44955;SDS011;30686;52.512;-1.188;2022-11-20T08:46:32;8.48;;;2.28;;
44955;SDS011;30686;52.512;-1.188;2022-11-20T08:49:30;5.40;;;1.25;;
44955;SDS011;30686;52.512;-1.188;2022-11-20T08:52:23;10.35;;;2.15;;
44955;SDS011;30686;52.512;-1.188;2022-11-20T08:54:49;8.98;;;1.98;;
44955;SDS011;30686;52.512;-1.188;2022-11-20T08:57:31;6.93;;;2.20;;
44955;SDS011;30686;52.512;-1.188;2022-11-20T08:59:59;11.90;;;1.38;;
44955;SDS011;30686;52.512;-1.188;2022-11-20T09:02:26;11.88;;;2.47;;
44955;SDS011;30686;52.512;-1.188;2022-11-20T09:04:55;7.25;;;1.60;;
44955;SDS011;30686;52.512;-1.188;2022-11-20T09:07:22;9.40;;;1.83;;
44955;SDS011;30686;52.512;-1.188;2022-11-20T09:09:50;6.65;;;1.73;;
44955;SDS011;30686;52.512;-1.188;2022-11-20T09:12:29;9.10;;;1.90;;
44955;SDS011;30686;52.512;-1.188;2022-11-20T09:15:20;3.35;;;1.58;;
44955;SDS011;30686;52.512;-1.188;2022-11-20T09:17:58;11.32;;;2.40;;
44955;SDS011;30686;52.512;-1.188;2022-11-20T09:20:25;17.98;;;4.22;;
44955;SDS011;30686;52.512;-1.188;2022-11-20T09:22:57;5.68;;;2.20;;
44955;SDS011;30686;52.512;-1.188;2022-11-20T09:25:23;9.23;;;1.77;;
44955;SDS011;30686;52.512;-1.188;2022-11-20T09:27:56;10.80;;;2.35;;
44955;SDS011;30686;52.512;-1.188;2022-11-20T09:30:23;4.88;;;1.40;;
44955;SDS011;30686;52.512;-1.188;2022-11-20T09:32:58;6.35;;;2.00;;
44955;SDS011;30686;52.512;-1.188;2022-11-20T09:35:24;7.97;;;1.92;;
44955;SDS011;30686;52.512;-1.188;2022-11-20T09:37:51;14.80;;;2.33;;
44955;SDS011;30686;52.512;-1.188;2022-11-20T09:40:21;9.02;;;2.10;;
44955;SDS011;30686;52.512;-1.188;2022-11-20T09:42:59;11.38;;;2.08;;
44955;SDS011;30686;52.512;-1.188;2022-11-20T09:56:07;19.02;;;3.33;;
44955;SDS011;30686;52.512;-1.188;2022-11-20T09:58:39;23.58;;;5.10;;
44955;SDS011;30686;52.512;-1.188;2022-11-20T10:01:15;23.70;;;4.15;;
44955;SDS011;30686;52.512;-1.188;2022-11-20T10:06:39;12.52;;;4.65;;
44955;SDS011;30686;52.512;-1.188;2022-11-20T10:29:41;9.85;;;2.53;;
44955;SDS011;30686;52.512;-1.188;2022-11-20T10:32:11;19.88;;;2.47;;
44955;SDS011;30686;52.512;-1.188;2022-11-20T10:37:12;11.60;;;2.38;;
44955;SDS011;30686;52.512;-1.188;2022-11-20T10:42:31;15.45;;;3.40;;
44955;SDS011;30686;52.512;-1.188;2022-11-20T10:45:13;14.60;;;2.40;;
44955;SDS011;30686;52.512;-1.188;2022-11-20T10:47:42;17.52;;;2.42;;
44955;SDS011;30686;52.512;-1.188;2022-11-20T10:50:10;11.48;;;2.17;;
44955;SDS011;30686;52.512;-1.188;2022-11-20T10:55:15;11.50;;;2.67;;
44955;SDS011;30686;52.512;-1.188;2022-11-20T11:00:22;16.40;;;2.72;;
44955;SDS011;30686;52.512;-1.188;2022-11-20T11:02:53;12.55;;;3.42;;
44955;SDS011;30686;52.512;-1.188;2022-11-20T11:08:01;13.60;;;2.80;;
44955;SDS011;30686;52.512;-1.188;2022-11-20T11:15:50;17.77;;;2.70;;
44955;SDS011;30686;52.512;-1.188;2022-11-20T11:18:29;14.77;;;2.35;;
44955;SDS011;30686;52.512;-1.188;2022-11-20T11:20:57;10.63;;;2.75;;
44955;SDS011;30686;52.512;-1.188;2022-11-20T11:23:40;10.30;;;2.08;;
44955;SDS011;30686;52.512;-1.188;2022-11-20T11:26:20;14.20;;;2.75;;
44955;SDS011;30686;52.512;-1.188;2022-11-20T11:29:00;15.85;;;2.53;;
44955;SDS011;30686;52.512;-1.188;2022-11-20T11:31:30;14.80;;;2.63;;
44955;SDS011;30686;52.512;-1.188;2022-11-20T11:34:06;7.43;;;2.05;;
44955;SDS011;30686;52.512;-1.188;2022-11-20T11:36:35;8.52;;;2.75;;
44955;SDS011;30686;52.512;-1.188;2022-11-20T11:39:11;10.80;;;2.17;;
44955;SDS011;30686;52.512;-1.188;2022-11-20T11:41:40;8.32;;;3.78;;
44955;SDS011;30686;52.512;-1.188;2022-11-20T11:44:19;10.07;;;2.28;;
44955;SDS011;30686;52.512;-1.188;2022-11-20T11:47:05;9.80;;;2.20;;
44955;SDS011;30686;52.512;-1.188;2022-11-20T11:49:35;15.10;;;3.13;;
44955;SDS011;30686;52.512;-1.188;2022-11-20T11:54:39;16.98;;;2.78;;
44955;SDS011;30686;52.512;-1.188;2022-11-20T11:57:10;11.13;;;2.85;;
44955;SDS011;30686;52.512;-1.188;2022-11-20T11:59:43;17.95;;;3.15;;
44955;SDS011;30686;52.512;-1.188;2022-11-20T12:05:09;20.25;;;2.53;;
44955;SDS011;30686;52.512;-1.188;2022-11-20T12:07:58;16.80;;;3.13;;
44955;SDS011;30686;52.512;-1.188;2022-11-20T12:12:58;16.88;;;2.63;;
44955;SDS011;30686;52.512;-1.188;2022-11-20T12:15:29;20.75;;;2.85;;
44955;SDS011;30686;52.512;-1.188;2022-11-20T12:17:56;11.57;;;2.97;;
44955;SDS011;30686;52.512;-1.188;2022-11-20T12:20:26;14.45;;;2.45;;
44955;SDS011;30686;52.512;-1.188;2022-11-20T12:22:56;7.35;;;2.35;;
44955;SDS011;30686;52.512;-1.188;2022-11-20T12:25:33;16.88;;;2.30;;
44955;SDS011;30686;52.512;-1.188;2022-11-20T12:43:35;9.40;;;1.70;;
44955;SDS011;30686;52.512;-1.188;2022-11-20T12:46:43;17.48;;;3.58;;
44955;SDS011;30686;52.512;-1.188;2022-11-20T13:04:50;13.40;;;2.90;;
44955;SDS011;30686;52.512;-1.188;2022-11-20T13:07:19;14.75;;;2.97;;
44955;SDS011;30686;52.512;-1.188;2022-11-20T13:09:46;12.45;;;2.85;;
44955;SDS011;30686;52.512;-1.188;2022-11-20T13:12:29;12.52;;;2.90;;
44955;SDS011;30686;52.512;-1.188;2022-11-20T13:15:01;15.50;;;3.20;;
44955;SDS011;30686;52.512;-1.188;2022-11-20T13:20:04;15.15;;;2.88;;
44955;SDS011;30686;52.512;-1.188;2022-11-20T13:22:44;11.55;;;2.50;;
44955;SDS011;30686;52.512;-1.188;2022-11-20T13:25:30;15.07;;;3.33;;
44955;SDS011;30686;52.512;-1.188;2022-11-20T13:27:58;14.55;;;3.00;;
44955;SDS011;30686;52.512;-1.188;2022-11-20T13:30:28;15.38;;;3.55;;
44955;SDS011;30686;52.512;-1.188;2022-11-20T13:32:56;13.10;;;3.10;;
44955;SDS011;30686;52.512;-1.188;2022-11-20T13:35:40;10.15;;;1.88;;
44955;SDS011;30686;52.512;-1.188;2022-11-20T13:38:13;12.57;;;2.85;;
44955;SDS011;30686;52.512;-1.188;2022-11-20T13:43:21;12.70;;;2.47;;
44955;SDS011;30686;52.512;-1.188;2022-11-20T13:45:55;16.48;;;3.67;;
44955;SDS011;30686;52.512;-1.188;2022-11-20T13:48:23;13.63;;;3.13;;
44955;SDS011;30686;52.512;-1.188;2022-11-20T13:53:48;10.88;;;2.38;;
44955;SDS011;30686;52.512;-1.188;2022-11-20T13:56:26;12.98;;;1.92;;
44955;SDS011;30686;52.512;-1.188;2022-11-20T14:01:41;24.63;;;2.55;;
44955;SDS011;30686;52.512;-1.188;2022-11-20T14:04:12;13.05;;;2.83;;
44955;SDS011;30686;52.512;-1.188;2022-11-20T14:06:42;12.05;;;2.28;;
44955;SDS011;30686;52.512;-1.188;2022-11-20T14:09:13;16.20;;;2.20;;
44955;SDS011;30686;52.512;-1.188;2022-11-20T14:11:50;6.53;;;1.73;;
44955;SDS011;30686;52.512;-1.188;2022-11-20T14:14:17;15.85;;;3.20;;
44955;SDS011;30686;52.512;-1.188;2022-11-20T14:16:44;11.32;;;3.13;;
44955;SDS011;30686;52.512;-1.188;2022-11-20T14:21:51;11.32;;;2.13;;
44955;SDS011;30686;52.512;-1.188;2022-11-20T14:24:22;7.22;;;2.20;;
44955;SDS011;30686;52.512;-1.188;2022-11-20T14:26:49;12.27;;;2.63;;
44955;SDS011;30686;52.512;-1.188;2022-11-20T14:29:21;7.13;;;1.90;;
44955;SDS011;30686;52.512;-1.188;2022-11-20T14:31:48;10.65;;;2.03;;
44955;SDS011;30686;52.512;-1.188;2022-11-20T14:34:51;9.60;;;2.35;;
44955;SDS011;30686;52.512;-1.188;2022-11-20T14:37:11;13.98;;;2.63;;
44955;SDS011;30686;52.512;-1.188;2022-11-20T14:39:40;13.13;;;2.35;;
44955;SDS011;30686;52.512;-1.188;2022-11-20T14:42:16;10.27;;;2.42;;
44955;SDS011;30686;52.512;-1.188;2022-11-20T14:44:47;12.35;;;2.05;;
44955;SDS011;30686;52.512;-1.188;2022-11-20T14:47:15;8.13;;;1.75;;
44955;SDS011;30686;52.512;-1.188;2022-11-20T14:49:43;3.45;;;1.40;;
44955;SDS011;30686;52.512;-1.188;2022-11-20T14:52:13;13.85;;;2.42;;
44955;SDS011;30686;52.512;-1.188;2022-11-20T14:54:58;8.57;;;1.88;;
44955;SDS011;30686;52.512;-1.188;2022-11-20T14:59:51;12.38;;;2.45;;
44955;SDS011;30686;52.512;-1.188;2022-11-20T15:02:17;9.27;;;2.70;;
44955;SDS011;30686;52.512;-1.188;2022-11-20T15:04:57;10.38;;;3.17;;
44955;SDS011;30686;52.512;-1.188;2022-11-20T15:07:25;6.82;;;2.10;;
44955;SDS011;30686;52.512;-1.188;2022-11-20T15:10:05;17.92;;;2.70;;
44955;SDS011;30686;52.512;-1.188;2022-11-20T15:12:35;19.40;;;3.45;;
44955;SDS011;30686;52.512;-1.188;2022-11-20T15:15:02;11.95;;;3.80;;
44955;SDS011;30686;52.512;-1.188;2022-11-20T15:17:29;11.00;;;3.00;;
44955;SDS011;30686;52.512;-1.188;2022-11-20T15:19:56;10.48;;;2.08;;
44955;SDS011;30686;52.512;-1.188;2022-11-20T15:22:22;10.60;;;2.08;;
44955;SDS011;30686;52.512;-1.188;2022-11-20T15:24:48;7.45;;;2.05;;
44955;SDS011;30686;52.512;-1.188;2022-11-20T15:27:15;5.05;;;1.60;;
44955;SDS011;30686;52.512;-1.188;2022-11-20T15:29:41;4.55;;;1.63;;
44955;SDS011;30686;52.512;-1.188;2022-11-20T15:32:08;5.93;;;1.95;;
44955;SDS011;30686;52.512;-1.188;2022-11-20T15:34:34;5.18;;;1.55;;
44955;SDS011;30686;52.512;-1.188;2022-11-20T15:37:00;3.70;;;1.20;;
44955;SDS011;30686;52.512;-1.188;2022-11-20T15:39:28;4.47;;;1.20;;
44955;SDS011;30686;52.512;-1.188;2022-11-20T15:41:57;5.30;;;1.25;;
44955;SDS011;30686;52.512;-1.188;2022-11-20T15:44:23;2.95;;;1.13;;
44955;SDS011;30686;52.512;-1.188;2022-11-20T15:46:49;2.58;;;0.93;;
44955;SDS011;30686;52.512;-1.188;2022-11-20T15:49:16;3.45;;;1.15;;
44955;SDS011;30686;52.512;-1.188;2022-11-20T15:51:44;6.22;;;1.42;;
44955;SDS011;30686;52.512;-1.188;2022-11-20T15:54:16;2.63;;;1.20;;
44955;SDS011;30686;52.512;-1.188;2022-11-20T15:56:45;6.22;;;1.40;;
44955;SDS011;30686;52.512;-1.188;2022-11-20T15:59:12;4.50;;;1.63;;
44955;SDS011;30686;52.512;-1.188;2022-11-20T16:01:40;3.75;;;1.05;;
44955;SDS011;30686;52.512;-1.188;2022-11-20T16:04:10;5.22;;;1.05;;
44955;SDS011;30686;52.512;-1.188;2022-11-20T16:06:37;2.88;;;1.10;;
44955;SDS011;30686;52.512;-1.188;2022-11-20T16:09:04;1.73;;;1.10;;
44955;SDS011;30686;52.512;-1.188;2022-11-20T16:11:30;5.97;;;1.70;;
44955;SDS011;30686;52.512;-1.188;2022-11-20T16:13:59;7.22;;;1.38;;
44955;SDS011;30686;52.512;-1.188;2022-11-20T16:16:44;5.43;;;1.33;;
44955;SDS011;30686;52.512;-1.188;2022-11-20T16:19:10;1.25;;;0.80;;
44955;SDS011;30686;52.512;-1.188;2022-11-20T16:21:37;4.80;;;1.33;;
44955;SDS011;30686;52.512;-1.188;2022-11-20T16:24:05;6.20;;;2.03;;
44955;SDS011;30686;52.512;-1.188;2022-11-20T16:26:32;6.90;;;2.33;;
44955;SDS011;30686;52.512;-1.188;2022-11-20T16:28:59;2.90;;;1.20;;
44955;SDS011;30686;52.512;-1.188;2022-11-20T16:31:25;4.60;;;1.73;;
44955;SDS011;30686;52.512;-1.188;2022-11-20T16:33:52;4.72;;;1.88;;
44955;SDS011;30686;52.512;-1.188;2022-11-20T16:36:19;7.80;;;2.25;;
44955;SDS011;30686;52.512;-1.188;2022-11-20T16:38:45;6.03;;;2.42;;
44955;SDS011;30686;52.512;-1.188;2022-11-20T16:41:12;7.45;;;2.47;;
44955;SDS011;30686;52.512;-1.188;2022-11-20T16:43:48;10.32;;;2.97;;
44955;SDS011;30686;52.512;-1.188;2022-11-20T16:46:15;9.88;;;3.63;;
44955;SDS011;30686;52.512;-1.188;2022-11-20T16:48:44;9.63;;;3.45;;
44955;SDS011;30686;52.512;-1.188;2022-11-20T16:51:13;6.95;;;2.60;;
44955;SDS011;30686;52.512;-1.188;2022-11-20T16:53:39;10.30;;;3.38;;
44955;SDS011;30686;52.512;-1.188;2022-11-20T16:56:11;6.50;;;1.90;;